Time;durP1;ratioP1;P1;durP2;ratioP2;P2;SDS_P1;SDS_P2;PMS_P1;PMS_P2;Temp;Humidity;BMP_temperature;BMP_pressure;BME280_temperature;BME280_humidity;BME280_pressure;Samples;Min_cycle;Max_cycle;Signal;HPM_P1;HPM_P2
2023/03/02 00:02:04;;;;;;;0.90;0.90;;;;;;;;;;5055366;28;20190;-85
2023/03/02 00:04:39;;;;;;;0.80;0.80;;;;;;;;;;5055885;28;20187;-85
2023/03/02 00:09:41;;;;;;;0.80;0.80;;;;;;;;;;5063533;28;20220;-84
2023/03/02 00:12:08;;;;;;;0.80;0.80;;;;;;;;;;5076992;28;20225;-84
2023/03/02 00:14:34;;;;;;;0.80;0.80;;;;;;;;;;5078030;28;20175;-84
2023/03/02 00:17:01;;;;;;;0.90;0.90;;;;;;;;;;5078117;28;20476;-83
2023/03/02 00:19:27;;;;;;;0.90;0.90;;;;;;;;;;5078388;28;20159;-84
2023/03/02 00:21:53;;;;;;;0.90;0.90;;;;;;;;;;5078093;28;20189;-84
2023/03/02 00:24:19;;;;;;;0.90;0.90;;;;;;;;;;5077501;28;20266;-85
2023/03/02 00:26:45;;;;;;;0.80;0.80;;;;;;;;;;5077348;28;20191;-83
2023/03/02 00:29:11;;;;;;;0.90;0.90;;;;;;;;;;5076992;28;20176;-83
2023/03/02 00:31:37;;;;;;;0.90;0.90;;;;;;;;;;5065171;28;20744;-84
2023/03/02 00:34:03;;;;;;;0.90;0.90;;;;;;;;;;5058115;28;20199;-83
2023/03/02 00:36:29;;;;;;;0.80;0.80;;;;;;;;;;5057429;28;20175;-83
2023/03/02 00:38:56;;;;;;;0.90;0.90;;;;;;;;;;5057038;28;20183;-83
2023/03/02 00:41:23;;;;;;;0.80;0.80;;;;;;;;;;5057108;28;20803;-84
2023/03/02 00:43:49;;;;;;;0.90;0.90;;;;;;;;;;5057044;28;20569;-83
2023/03/02 00:46:17;;;;;;;0.90;0.90;;;;;;;;;;5057393;28;20175;-83
2023/03/02 00:48:43;;;;;;;0.90;0.90;;;;;;;;;;5058463;28;20747;-84
2023/03/02 00:51:09;;;;;;;0.90;0.90;;;;;;;;;;5057387;28;20179;-83
2023/03/02 00:53:38;;;;;;;0.93;0.93;;;;;;;;;;5057516;28;20762;-83
2023/03/02 00:56:06;;;;;;;0.80;0.80;;;;;;;;;;5056428;28;20541;-84
2023/03/02 00:58:32;;;;;;;0.90;0.90;;;;;;;;;;5068202;28;20184;-84
2023/03/02 01:00:58;;;;;;;0.90;0.90;;;;;;;;;;5076835;28;20179;-83
2023/03/02 01:03:24;;;;;;;0.90;0.90;;;;;;;;;;5075739;28;20191;-83
2023/03/02 01:05:54;;;;;;;0.80;0.80;;;;;;;;;;5066766;28;20183;-84
2023/03/02 01:08:20;;;;;;;0.90;0.90;;;;;;;;;;5060109;28;20202;-84
2023/03/02 01:10:46;;;;;;;0.90;0.90;;;;;;;;;;5059966;28;20190;-84
2023/03/02 01:13:12;;;;;;;0.80;0.80;;;;;;;;;;5059562;28;20230;-83
2023/03/02 01:15:38;;;;;;;0.80;0.80;;;;;;;;;;5059621;28;20634;-84
2023/03/02 01:18:04;;;;;;;0.80;0.80;;;;;;;;;;5060051;28;20179;-83
2023/03/02 01:20:31;;;;;;;0.90;0.90;;;;;;;;;;5060751;28;20190;-85
2023/03/02 01:22:57;;;;;;;0.80;0.80;;;;;;;;;;5061972;28;20563;-84
2023/03/02 01:25:23;;;;;;;0.90;0.90;;;;;;;;;;5066470;28;20181;-83
2023/03/02 01:27:49;;;;;;;0.90;0.90;;;;;;;;;;5067588;28;20261;-84
2023/03/02 01:30:15;;;;;;;0.90;0.90;;;;;;;;;;5066862;28;20190;-84
2023/03/02 01:32:41;;;;;;;0.90;0.90;;;;;;;;;;5058219;28;20222;-83
2023/03/02 01:35:07;;;;;;;0.90;0.90;;;;;;;;;;5058483;28;20179;-83
2023/03/02 01:37:33;;;;;;;0.80;0.80;;;;;;;;;;5058345;28;20190;-83
2023/03/02 01:40:05;;;;;;;0.80;0.80;;;;;;;;;;5058147;28;20190;-83
2023/03/02 01:42:37;;;;;;;0.90;0.90;;;;;;;;;;5056325;28;20210;-83
2023/03/02 01:45:03;;;;;;;0.80;0.80;;;;;;;;;;5037175;28;20267;-83
2023/03/02 01:47:37;;;;;;;0.90;0.90;;;;;;;;;;5037119;28;20172;-84
2023/03/02 01:50:06;;;;;;;0.97;0.97;;;;;;;;;;5037285;28;20172;-84
2023/03/02 01:52:37;;;;;;;0.83;0.83;;;;;;;;;;5038212;28;20228;-84
2023/03/02 01:55:05;;;;;;;0.80;0.80;;;;;;;;;;5038767;28;20180;-83
2023/03/02 01:57:33;;;;;;;0.90;0.90;;;;;;;;;;5038297;28;20180;-84
2023/03/02 02:00:07;;;;;;;0.80;0.80;;;;;;;;;;5038107;28;20172;-85
2023/03/02 02:02:33;;;;;;;0.90;0.90;;;;;;;;;;5038465;28;20223;-83
2023/03/02 02:04:59;;;;;;;0.90;0.90;;;;;;;;;;5038606;28;20659;-83
2023/03/02 02:07:26;;;;;;;0.80;0.80;;;;;;;;;;5038817;28;20233;-84
2023/03/02 02:09:53;;;;;;;0.80;0.80;;;;;;;;;;5038916;28;20266;-84
2023/03/02 02:12:21;;;;;;;0.90;0.90;;;;;;;;;;5039319;28;20222;-83
2023/03/02 02:14:47;;;;;;;0.80;0.80;;;;;;;;;;5044720;28;20207;-84
2023/03/02 02:17:14;;;;;;;0.90;0.90;;;;;;;;;;5053621;28;20199;-83
2023/03/02 02:19:44;;;;;;;0.90;0.90;;;;;;;;;;5053868;28;20283;-83
2023/03/02 02:22:11;;;;;;;0.80;0.80;;;;;;;;;;5040021;28;20545;-84
2023/03/02 02:24:49;;;;;;;1.00;1.00;;;;;;;;;;5039410;28;20195;-84
2023/03/02 02:27:15;;;;;;;0.90;0.90;;;;;;;;;;5040282;28;20175;-84
2023/03/02 02:29:44;;;;;;;0.90;0.90;;;;;;;;;;5039957;28;20239;-84
2023/03/02 02:32:15;;;;;;;0.90;0.90;;;;;;;;;;5054197;28;20226;-83
2023/03/02 02:34:48;;;;;;;0.90;0.90;;;;;;;;;;5059532;28;20181;-83
2023/03/02 02:37:19;;;;;;;0.80;0.80;;;;;;;;;;5061203;28;20240;-82
2023/03/02 02:39:46;;;;;;;0.80;0.80;;;;;;;;;;5061130;28;20199;-82
2023/03/02 02:42:14;;;;;;;0.80;0.80;;;;;;;;;;5060993;28;20175;-82
2023/03/02 02:44:40;;;;;;;0.90;0.90;;;;;;;;;;5060910;28;20166;-82
2023/03/02 02:47:17;;;;;;;0.90;0.90;;;;;;;;;;5061140;28;20275;-83
2023/03/02 02:49:44;;;;;;;0.90;0.90;;;;;;;;;;5060948;28;20175;-83
2023/03/02 02:52:12;;;;;;;0.80;0.80;;;;;;;;;;5060581;28;20218;-82
2023/03/02 02:54:38;;;;;;;0.90;0.90;;;;;;;;;;5060079;28;20166;-82
2023/03/02 02:57:05;;;;;;;0.80;0.80;;;;;;;;;;5057985;28;20198;-83
2023/03/02 02:59:36;;;;;;;0.90;0.90;;;;;;;;;;5058435;28;20199;-83
2023/03/02 03:02:02;;;;;;;0.80;0.80;;;;;;;;;;5057748;28;20184;-85
2023/03/02 03:04:29;;;;;;;1.00;1.00;;;;;;;;;;5055499;28;20180;-84
2023/03/02 03:06:57;;;;;;;0.87;0.87;;;;;;;;;;5054765;28;20220;-85
2023/03/02 03:09:23;;;;;;;0.87;0.87;;;;;;;;;;5054637;28;20245;-83
2023/03/02 03:11:55;;;;;;;0.90;0.90;;;;;;;;;;5049139;28;20257;-84
2023/03/02 03:14:28;;;;;;;0.90;0.90;;;;;;;;;;5050507;28;20180;-83
2023/03/02 03:16:54;;;;;;;0.90;0.90;;;;;;;;;;5053233;28;20190;-84
2023/03/02 03:19:24;;;;;;;0.90;0.90;;;;;;;;;;5055681;28;20232;-83
2023/03/02 03:21:51;;;;;;;0.87;0.87;;;;;;;;;;5053408;28;20296;-83
2023/03/02 03:24:18;;;;;;;0.90;0.90;;;;;;;;;;5056695;28;20215;-83
2023/03/02 03:26:44;;;;;;;0.90;0.90;;;;;;;;;;5056806;28;20199;-83
2023/03/02 03:29:11;;;;;;;0.87;0.87;;;;;;;;;;5055992;28;20180;-83
2023/03/02 03:31:37;;;;;;;0.90;0.90;;;;;;;;;;5055905;28;20211;-83
2023/03/02 03:34:03;;;;;;;0.90;0.90;;;;;;;;;;5053704;28;20195;-83
2023/03/02 03:36:30;;;;;;;0.80;0.80;;;;;;;;;;5044588;28;20176;-82
2023/03/02 03:38:56;;;;;;;0.90;0.90;;;;;;;;;;5035137;28;20207;-83
2023/03/02 03:41:23;;;;;;;0.73;0.73;;;;;;;;;;5035687;28;20556;-83
2023/03/02 03:43:49;;;;;;;0.90;0.90;;;;;;;;;;5035141;28;20286;-83
2023/03/02 03:46:15;;;;;;;0.90;0.90;;;;;;;;;;5034956;28;20180;-83
2023/03/02 03:48:41;;;;;;;1.00;1.00;;;;;;;;;;5035201;28;20176;-83
2023/03/02 03:51:08;;;;;;;1.00;1.00;;;;;;;;;;5036019;28;20507;-83
2023/03/02 03:53:34;;;;;;;0.90;0.90;;;;;;;;;;5034517;28;20662;-83
2023/03/02 03:56:02;;;;;;;0.90;0.90;;;;;;;;;;5035721;28;20674;-82
2023/03/02 03:58:28;;;;;;;0.90;0.90;;;;;;;;;;5036171;28;20580;-82
2023/03/02 04:00:54;;;;;;;1.00;1.00;;;;;;;;;;5036306;28;20184;-83
2023/03/02 04:03:21;;;;;;;1.00;1.00;;;;;;;;;;5035022;28;20540;-83
2023/03/02 04:05:47;;;;;;;0.90;0.90;;;;;;;;;;5035620;28;20180;-83
2023/03/02 04:08:13;;;;;;;1.00;1.00;;;;;;;;;;5036156;28;20227;-83
2023/03/02 04:10:40;;;;;;;0.90;0.90;;;;;;;;;;5035670;28;20208;-83
2023/03/02 04:13:06;;;;;;;0.90;0.90;;;;;;;;;;5036867;28;20238;-82
2023/03/02 04:15:32;;;;;;;0.80;0.80;;;;;;;;;;5036461;28;20560;-83
2023/03/02 04:17:58;;;;;;;0.80;0.80;;;;;;;;;;5035925;28;20179;-83
2023/03/02 04:20:25;;;;;;;1.00;1.00;;;;;;;;;;5036517;28;20171;-84
2023/03/02 04:22:51;;;;;;;1.00;1.00;;;;;;;;;;5035928;28;20234;-84
2023/03/02 04:25:19;;;;;;;0.90;0.90;;;;;;;;;;5036805;28;20180;-83
2023/03/02 04:27:46;;;;;;;0.90;0.90;;;;;;;;;;5038767;28;20538;-84
2023/03/02 04:30:12;;;;;;;0.80;0.80;;;;;;;;;;5039525;28;20547;-84
2023/03/02 04:32:38;;;;;;;0.90;0.90;;;;;;;;;;5038216;28;20215;-84
2023/03/02 04:35:04;;;;;;;0.90;0.90;;;;;;;;;;5038871;28;20180;-84
2023/03/02 04:37:30;;;;;;;0.80;0.80;;;;;;;;;;5039285;28;20526;-85
2023/03/02 04:39:56;;;;;;;0.80;0.80;;;;;;;;;;5038602;28;20179;-84
2023/03/02 04:42:22;;;;;;;0.90;0.90;;;;;;;;;;5038064;28;20208;-84
2023/03/02 04:44:48;;;;;;;0.90;0.90;;;;;;;;;;5038606;28;20176;-84
2023/03/02 04:47:15;;;;;;;0.90;0.90;;;;;;;;;;5039581;28;20176;-84
2023/03/02 04:49:41;;;;;;;0.80;0.80;;;;;;;;;;5039582;28;20183;-85
2023/03/02 04:52:07;;;;;;;1.00;1.00;;;;;;;;;;5038664;28;20297;-84
2023/03/02 04:54:33;;;;;;;1.00;1.00;;;;;;;;;;5038256;28;20180;-84
2023/03/02 04:56:59;;;;;;;0.90;0.90;;;;;;;;;;5039177;28;20187;-84
2023/03/02 04:59:26;;;;;;;0.90;0.90;;;;;;;;;;5039491;28;20534;-85
2023/03/02 05:01:53;;;;;;;0.90;0.90;;;;;;;;;;5039104;28;20195;-84
2023/03/02 05:04:19;;;;;;;1.00;1.00;;;;;;;;;;5039946;28;20180;-83
2023/03/02 05:06:45;;;;;;;0.90;0.90;;;;;;;;;;5038453;28;20179;-84
2023/03/02 05:09:11;;;;;;;1.00;1.00;;;;;;;;;;5040281;28;20254;-84
2023/03/02 05:11:37;;;;;;;0.90;0.90;;;;;;;;;;5040736;28;20230;-84
2023/03/02 05:14:04;;;;;;;0.90;0.90;;;;;;;;;;5039028;28;20196;-84
2023/03/02 05:16:31;;;;;;;1.00;1.00;;;;;;;;;;5039926;28;20176;-84
2023/03/02 05:18:58;;;;;;;0.80;0.80;;;;;;;;;;5039683;28;20211;-84
2023/03/02 05:21:24;;;;;;;0.90;0.90;;;;;;;;;;5040351;28;20182;-84
2023/03/02 05:23:50;;;;;;;0.90;0.90;;;;;;;;;;5039811;28;20222;-84
2023/03/02 05:26:16;;;;;;;0.90;0.90;;;;;;;;;;5039483;28;20206;-84
2023/03/02 05:28:43;;;;;;;0.83;0.83;;;;;;;;;;5040377;28;20180;-85
2023/03/02 05:31:12;;;;;;;0.90;0.90;;;;;;;;;;5046417;28;20180;-83
2023/03/02 05:33:37;;;;;;;0.90;0.90;;;;;;;;;;5054344;28;20195;-83
2023/03/02 05:36:03;;;;;;;0.90;0.90;;;;;;;;;;5055332;28;20264;-83
2023/03/02 05:38:30;;;;;;;0.90;0.90;;;;;;;;;;5054451;28;20180;-83
2023/03/02 05:40:56;;;;;;;0.80;0.80;;;;;;;;;;5038201;28;20176;-83
2023/03/02 05:43:22;;;;;;;0.90;0.90;;;;;;;;;;5037912;28;20202;-83
2023/03/02 05:45:48;;;;;;;0.90;0.90;;;;;;;;;;5037780;28;20179;-83
2023/03/02 05:48:15;;;;;;;0.80;0.80;;;;;;;;;;5038772;28;20202;-83
2023/03/02 05:50:41;;;;;;;0.80;0.80;;;;;;;;;;5038166;28;20568;-84
2023/03/02 05:53:07;;;;;;;0.83;0.83;;;;;;;;;;5036759;28;20258;-83
2023/03/02 05:55:35;;;;;;;0.80;0.80;;;;;;;;;;5046277;28;20182;-82
2023/03/02 05:58:06;;;;;;;1.00;1.00;;;;;;;;;;5057360;28;20175;-82
2023/03/02 06:00:32;;;;;;;0.90;0.90;;;;;;;;;;5059352;28;20171;-86
2023/03/02 06:02:58;;;;;;;0.90;0.90;;;;;;;;;;5058138;28;20226;-83
2023/03/02 06:05:24;;;;;;;0.80;0.80;;;;;;;;;;5055786;28;20246;-85
2023/03/02 06:07:50;;;;;;;0.90;0.90;;;;;;;;;;5057319;28;20195;-86
2023/03/02 06:10:16;;;;;;;0.90;0.90;;;;;;;;;;5078230;28;20198;-86
2023/03/02 06:12:42;;;;;;;0.90;0.90;;;;;;;;;;5077968;28;20226;-86
2023/03/02 06:15:08;;;;;;;0.90;0.90;;;;;;;;;;5075161;28;20179;-85
2023/03/02 06:17:34;;;;;;;0.90;0.90;;;;;;;;;;5065914;28;20178;-84
2023/03/02 06:20:00;;;;;;;0.90;0.90;;;;;;;;;;5065693;28;20487;-85
2023/03/02 06:22:26;;;;;;;0.80;0.80;;;;;;;;;;5063920;28;20318;-83
2023/03/02 06:24:56;;;;;;;0.90;0.90;;;;;;;;;;5068629;28;20171;-86
2023/03/02 06:27:22;;;;;;;1.00;1.00;;;;;;;;;;5071813;28;20183;-88
2023/03/02 06:29:48;;;;;;;0.80;0.80;;;;;;;;;;5068401;28;20183;-87
2023/03/02 06:32:14;;;;;;;0.90;0.90;;;;;;;;;;5067570;28;20250;-87
2023/03/02 06:34:52;;;;;;;0.90;0.90;;;;;;;;;;5066325;28;20171;-86
2023/03/02 06:37:18;;;;;;;0.80;0.80;;;;;;;;;;5059105;28;20183;-85
2023/03/02 06:39:44;;;;;;;0.80;0.80;;;;;;;;;;5059605;28;20182;-86
2023/03/02 06:42:09;;;;;;;0.90;0.90;;;;;;;;;;5060204;28;20270;-84
2023/03/02 06:44:35;;;;;;;0.90;0.90;;;;;;;;;;5060833;28;20206;-84
2023/03/02 06:47:01;;;;;;;0.90;0.90;;;;;;;;;;5061781;28;20746;-85
2023/03/02 06:49:27;;;;;;;0.90;0.90;;;;;;;;;;5060016;28;20179;-85
2023/03/02 06:51:53;;;;;;;0.80;0.80;;;;;;;;;;5059883;28;20261;-85
2023/03/02 06:54:19;;;;;;;0.93;0.93;;;;;;;;;;5057800;28;20171;-85
2023/03/02 06:56:45;;;;;;;0.80;0.80;;;;;;;;;;5058167;28;20501;-86
2023/03/02 06:59:11;;;;;;;0.90;0.90;;;;;;;;;;5057388;28;20266;-88
2023/03/02 07:01:37;;;;;;;0.90;0.90;;;;;;;;;;5057586;28;20167;-86
2023/03/02 07:04:03;;;;;;;0.90;0.90;;;;;;;;;;5062259;28;20195;-84
2023/03/02 07:06:29;;;;;;;0.80;0.80;;;;;;;;;;5062191;28;20171;-83
2023/03/02 07:08:55;;;;;;;0.80;0.80;;;;;;;;;;5061821;28;20257;-84
2023/03/02 07:11:21;;;;;;;0.90;0.90;;;;;;;;;;5061790;28;20649;-83
2023/03/02 07:13:47;;;;;;;0.90;0.90;;;;;;;;;;5061674;28;20720;-84
2023/03/02 07:16:14;;;;;;;1.00;1.00;;;;;;;;;;5061753;28;20577;-82
2023/03/02 07:18:40;;;;;;;0.80;0.80;;;;;;;;;;5060159;28;20172;-84
2023/03/02 07:21:06;;;;;;;0.90;0.90;;;;;;;;;;5050690;28;20176;-83
2023/03/02 07:23:32;;;;;;;0.80;0.80;;;;;;;;;;5049327;28;20199;-83
2023/03/02 07:25:59;;;;;;;0.80;0.80;;;;;;;;;;5048886;28;20206;-84
2023/03/02 07:28:25;;;;;;;0.80;0.80;;;;;;;;;;5053434;28;20190;-83
2023/03/02 07:30:52;;;;;;;1.00;1.00;;;;;;;;;;5053160;28;20174;-87
2023/03/02 07:33:18;;;;;;;0.90;0.90;;;;;;;;;;5047770;28;20277;-87
2023/03/02 07:35:44;;;;;;;0.83;0.83;;;;;;;;;;5046444;28;20229;-86
2023/03/02 07:38:10;;;;;;;0.97;0.97;;;;;;;;;;5055413;28;20263;-88
2023/03/02 07:40:39;;;;;;;1.00;1.00;;;;;;;;;;5051961;28;20532;-87
2023/03/02 07:43:05;;;;;;;1.00;1.00;;;;;;;;;;5042639;28;20667;-88
2023/03/02 07:45:31;;;;;;;0.80;0.80;;;;;;;;;;5051003;28;20179;-87
2023/03/02 07:47:57;;;;;;;0.90;0.90;;;;;;;;;;5054421;28;20634;-88
2023/03/02 07:50:23;;;;;;;0.90;0.90;;;;;;;;;;5059061;28;20198;-87
2023/03/02 07:52:49;;;;;;;0.90;0.90;;;;;;;;;;5070177;28;20242;-87
2023/03/02 07:55:16;;;;;;;0.87;0.87;;;;;;;;;;5071521;28;20179;-87
2023/03/02 07:57:42;;;;;;;0.90;0.90;;;;;;;;;;5059930;28;20186;-86
2023/03/02 08:00:08;;;;;;;0.80;0.80;;;;;;;;;;5058520;28;20167;-86
2023/03/02 08:02:34;;;;;;;0.83;0.83;;;;;;;;;;5058435;28;20215;-85
2023/03/02 08:05:00;;;;;;;0.90;0.90;;;;;;;;;;5055225;28;20745;-86
2023/03/02 08:07:26;;;;;;;0.90;0.90;;;;;;;;;;5056545;28;20183;-86
2023/03/02 08:09:52;;;;;;;0.93;0.93;;;;;;;;;;5060786;28;20202;-86
2023/03/02 08:12:18;;;;;;;1.00;1.00;;;;;;;;;;5070243;28;20202;-85
2023/03/02 08:14:44;;;;;;;0.80;0.80;;;;;;;;;;5078248;28;20171;-84
2023/03/02 08:17:10;;;;;;;0.90;0.90;;;;;;;;;;5078169;28;20206;-86
2023/03/02 08:19:36;;;;;;;1.00;1.00;;;;;;;;;;5077991;28;20174;-87
2023/03/02 08:22:02;;;;;;;0.90;0.90;;;;;;;;;;5077787;28;20198;-86
2023/03/02 08:24:28;;;;;;;0.97;0.97;;;;;;;;;;5076800;28;20167;-88
2023/03/02 08:26:54;;;;;;;0.83;0.83;;;;;;;;;;5075416;28;20205;-88
2023/03/02 08:29:20;;;;;;;0.80;0.80;;;;;;;;;;5078030;28;20167;-87
2023/03/02 08:31:47;;;;;;;0.93;0.93;;;;;;;;;;5077362;28;20191;-87
2023/03/02 08:34:13;;;;;;;1.00;1.00;;;;;;;;;;5077323;28;20195;-88
2023/03/02 08:36:39;;;;;;;0.90;0.90;;;;;;;;;;5077696;28;20174;-88
2023/03/02 08:39:06;;;;;;;0.80;0.80;;;;;;;;;;5078027;28;20215;-86
2023/03/02 08:41:33;;;;;;;0.90;0.90;;;;;;;;;;5078497;28;20171;-87
2023/03/02 08:43:59;;;;;;;0.90;0.90;;;;;;;;;;5078039;28;20182;-87
2023/03/02 08:46:25;;;;;;;0.80;0.80;;;;;;;;;;5078382;28;20167;-84
2023/03/02 08:48:51;;;;;;;0.90;0.90;;;;;;;;;;5078163;28;20167;-87
2023/03/02 08:51:18;;;;;;;0.90;0.90;;;;;;;;;;5077103;28;20183;-84
2023/03/02 08:53:45;;;;;;;0.80;0.80;;;;;;;;;;5077371;28;20186;-83
2023/03/02 08:56:15;;;;;;;0.83;0.83;;;;;;;;;;5077797;28;20178;-85
2023/03/02 08:58:41;;;;;;;0.87;0.87;;;;;;;;;;5077899;28;20183;-85
2023/03/02 09:01:12;;;;;;;0.80;0.80;;;;;;;;;;5077737;28;20164;-85
2023/03/02 09:03:38;;;;;;;0.90;0.90;;;;;;;;;;5077152;28;20270;-88
2023/03/02 09:06:04;;;;;;;0.80;0.80;;;;;;;;;;5077467;28;20167;-86
2023/03/02 09:08:30;;;;;;;0.80;0.80;;;;;;;;;;5077815;28;20183;-84
2023/03/02 09:10:56;;;;;;;0.80;0.80;;;;;;;;;;5077359;28;20247;-83
2023/03/02 09:13:22;;;;;;;0.73;0.73;;;;;;;;;;5077061;28;20207;-84
2023/03/02 09:15:48;;;;;;;0.80;0.80;;;;;;;;;;5077591;28;20164;-86
2023/03/02 09:18:14;;;;;;;0.70;0.70;;;;;;;;;;5077243;28;20171;-86
2023/03/02 09:20:40;;;;;;;0.73;0.73;;;;;;;;;;5077371;28;20159;-88
2023/03/02 09:23:06;;;;;;;0.70;0.70;;;;;;;;;;5076615;28;20232;-83
2023/03/02 09:25:32;;;;;;;0.60;0.60;;;;;;;;;;5076549;28;20182;-81
2023/03/02 09:27:58;;;;;;;0.67;0.67;;;;;;;;;;5076063;28;20470;-81
2023/03/02 09:30:24;;;;;;;0.70;0.70;;;;;;;;;;5076974;28;20167;-88
2023/03/02 09:32:50;;;;;;;0.80;0.80;;;;;;;;;;5076130;28;20249;-87
2023/03/02 09:35:16;;;;;;;0.70;0.70;;;;;;;;;;5070851;28;20175;-90
2023/03/02 09:37:42;;;;;;;0.70;0.70;;;;;;;;;;5076636;28;20182;-88
2023/03/02 09:40:23;;;;;;;0.60;0.60;;;;;;;;;;5066415;28;20186;-86
2023/03/02 09:43:07;;;;;;;0.60;0.60;;;;;;;;;;5060250;28;20194;-88
2023/03/02 09:45:52;;;;;;;0.60;0.60;;;;;;;;;;5060404;28;20171;-88
2023/03/02 09:48:21;;;;;;;0.60;0.60;;;;;;;;;;5061228;28;20186;-88
2023/03/02 09:51:07;;;;;;;0.70;0.70;;;;;;;;;;5058419;28;20168;-87
2023/03/02 09:53:34;;;;;;;0.60;0.60;;;;;;;;;;5065818;28;20211;-87
2023/03/02 09:56:01;;;;;;;0.60;0.60;;;;;;;;;;5060181;28;20179;-90
2023/03/02 09:58:49;;;;;;;0.67;0.67;;;;;;;;;;5071493;28;20187;-90
2023/03/02 10:01:20;;;;;;;0.60;0.60;;;;;;;;;;5081234;28;20186;-95
2023/03/02 10:03:55;;;;;;;0.70;0.70;;;;;;;;;;5081162;28;20197;-91
2023/03/02 10:06:21;;;;;;;0.50;0.50;;;;;;;;;;5081215;28;20162;-89
2023/03/02 10:11:32;;;;;;;0.50;0.50;;;;;;;;;;5386707;22;20232;-95
2023/03/02 10:21:51;;;;;;;0.50;0.50;;;;;;;;;;5428039;23;20230;-96
2023/03/02 10:29:26;;;;;;;0.50;0.50;;;;;;;;;;5025582;23;20228;-88
2023/03/02 10:32:02;;;;;;;0.40;0.40;;;;;;;;;;5026818;28;20220;-90
2023/03/02 10:42:57;;;;;;;0.40;0.40;;;;;;;;;;5035450;23;20263;-88
2023/03/02 10:45:45;;;;;;;0.47;0.47;;;;;;;;;;5003053;28;20593;-89
2023/03/02 11:23:48;;;;;;;0.50;0.50;;;;;;;;;;5615579;23;20321;-89
2023/03/02 11:26:52;;;;;;;0.40;0.40;;;;;;;;;;5018955;28;20251;-89
2023/03/02 11:40:04;;;;;;;0.37;0.37;;;;;;;;;;5025388;28;20263;-89
2023/03/02 11:45:43;;;;;;;0.40;0.40;;;;;;;;;;5041900;23;20235;-90
2023/03/02 11:56:31;;;;;;;0.40;0.40;;;;;;;;;;5655653;23;20271;-93
2023/03/02 11:59:11;;;;;;;0.50;0.50;;;;;;;;;;5183638;22;20232;-90
2023/03/02 12:01:42;;;;;;;0.40;0.40;;;;;;;;;;5025199;28;20200;-91
2023/03/02 12:09:22;;;;;;;0.30;0.30;;;;;;;;;;5364480;23;20230;-91
2023/03/02 12:11:59;;;;;;;0.40;0.40;;;;;;;;;;5016889;28;20204;-90
2023/03/02 12:14:36;;;;;;;0.30;0.30;;;;;;;;;;4996738;28;20598;-89
2023/03/02 12:17:21;;;;;;;0.30;0.30;;;;;;;;;;4996769;28;20177;-89
2023/03/02 12:19:48;;;;;;;0.40;0.40;;;;;;;;;;4996812;28;20181;-89
2023/03/02 12:22:25;;;;;;;0.40;0.40;;;;;;;;;;4996312;28;20205;-88
2023/03/02 12:24:58;;;;;;;0.47;0.47;;;;;;;;;;4997550;28;20204;-89
2023/03/02 12:27:26;;;;;;;0.30;0.30;;;;;;;;;;4998712;28;20184;-88
2023/03/02 12:30:10;;;;;;;0.30;0.30;;;;;;;;;;4998464;28;20204;-88
2023/03/02 12:32:36;;;;;;;0.40;0.40;;;;;;;;;;4997280;28;20293;-88
2023/03/02 12:35:09;;;;;;;0.30;0.30;;;;;;;;;;4997447;28;20193;-88
2023/03/02 12:37:41;;;;;;;0.30;0.30;;;;;;;;;;4997639;28;20185;-88
2023/03/02 12:40:26;;;;;;;0.30;0.30;;;;;;;;;;4998245;28;20177;-88
2023/03/02 12:43:10;;;;;;;0.40;0.40;;;;;;;;;;4996977;28;20204;-89
2023/03/02 12:45:55;;;;;;;0.30;0.30;;;;;;;;;;5000183;28;20200;-89
2023/03/02 12:48:21;;;;;;;0.40;0.40;;;;;;;;;;4998720;28;20567;-89
2023/03/02 12:50:47;;;;;;;0.40;0.40;;;;;;;;;;4998491;28;20208;-87
2023/03/02 12:53:16;;;;;;;0.30;0.30;;;;;;;;;;4996384;28;20217;-89
2023/03/02 12:55:44;;;;;;;0.30;0.30;;;;;;;;;;4998112;28;20201;-87
2023/03/02 12:58:18;;;;;;;0.30;0.30;;;;;;;;;;4999543;28;20276;-89
2023/03/02 13:00:49;;;;;;;0.40;0.40;;;;;;;;;;4996700;28;20181;-84
2023/03/02 13:03:15;;;;;;;0.40;0.40;;;;;;;;;;4990035;28;20219;-84
2023/03/02 13:05:41;;;;;;;0.50;0.50;;;;;;;;;;4989544;28;20550;-84
2023/03/02 13:08:19;;;;;;;0.40;0.40;;;;;;;;;;4985856;28;20212;-86
2023/03/02 13:10:48;;;;;;;0.40;0.40;;;;;;;;;;4988604;28;20189;-84
2023/03/02 13:13:17;;;;;;;0.50;0.50;;;;;;;;;;4989592;28;20219;-85
2023/03/02 13:15:57;;;;;;;0.30;0.30;;;;;;;;;;4991400;28;20248;-84
2023/03/02 13:18:24;;;;;;;0.47;0.47;;;;;;;;;;4996883;28;20176;-84
2023/03/02 13:20:51;;;;;;;0.40;0.40;;;;;;;;;;4988929;28;20212;-84
2023/03/02 13:23:17;;;;;;;0.40;0.40;;;;;;;;;;4993607;28;20277;-83
2023/03/02 13:25:48;;;;;;;0.50;0.50;;;;;;;;;;4996127;28;20177;-83
2023/03/02 13:28:32;;;;;;;0.60;0.60;;;;;;;;;;4987304;28;20729;-82
2023/03/02 13:30:58;;;;;;;0.50;0.50;;;;;;;;;;4993722;28;20212;-84
2023/03/02 13:33:25;;;;;;;0.40;0.40;;;;;;;;;;4977485;28;20220;-89
2023/03/02 13:35:51;;;;;;;0.30;0.30;;;;;;;;;;4977002;28;20193;-87
2023/03/02 13:38:18;;;;;;;0.40;0.40;;;;;;;;;;4993914;28;20196;-87
2023/03/02 13:40:47;;;;;;;0.50;0.50;;;;;;;;;;4993935;28;20177;-89
2023/03/02 13:43:18;;;;;;;0.40;0.40;;;;;;;;;;4993560;28;20287;-90
2023/03/02 13:46:11;;;;;;;0.40;0.40;;;;;;;;;;4993829;28;20200;-87
2023/03/02 13:48:37;;;;;;;0.40;0.40;;;;;;;;;;4986002;28;20553;-87
2023/03/02 13:51:24;;;;;;;0.50;0.50;;;;;;;;;;4982469;28;20316;-87
2023/03/02 13:53:58;;;;;;;0.30;0.30;;;;;;;;;;4983281;28;20295;-87
2023/03/02 13:56:28;;;;;;;0.57;0.57;;;;;;;;;;4986638;28;20173;-86
2023/03/02 13:58:54;;;;;;;0.50;0.50;;;;;;;;;;4993923;28;20640;-86
2023/03/02 14:01:20;;;;;;;0.60;0.60;;;;;;;;;;4991978;28;20176;-86
2023/03/02 14:03:46;;;;;;;0.47;0.47;;;;;;;;;;4992199;28;20201;-86
2023/03/02 14:06:12;;;;;;;0.40;0.40;;;;;;;;;;4982704;28;20276;-87
2023/03/02 14:08:38;;;;;;;0.50;0.50;;;;;;;;;;4994291;28;20640;-88
2023/03/02 14:11:04;;;;;;;0.60;0.60;;;;;;;;;;4994909;28;20185;-88
2023/03/02 14:13:39;;;;;;;0.53;0.53;;;;;;;;;;4993589;28;20290;-87
2023/03/02 14:16:05;;;;;;;0.40;0.40;;;;;;;;;;4979247;28;20182;-86
2023/03/02 14:18:39;;;;;;;0.40;0.40;;;;;;;;;;4976119;28;20182;-86
2023/03/02 14:21:06;;;;;;;0.50;0.50;;;;;;;;;;4989244;28;20188;-88
2023/03/02 14:23:32;;;;;;;0.50;0.50;;;;;;;;;;4974176;28;20209;-87
2023/03/02 14:25:58;;;;;;;0.40;0.40;;;;;;;;;;4986681;28;20187;-88
2023/03/02 14:28:26;;;;;;;0.57;0.57;;;;;;;;;;4979699;28;20555;-87
2023/03/02 14:30:53;;;;;;;0.50;0.50;;;;;;;;;;4985462;28;20216;-87
2023/03/02 14:33:20;;;;;;;0.50;0.50;;;;;;;;;;4994200;28;20225;-88
2023/03/02 14:35:46;;;;;;;0.50;0.50;;;;;;;;;;4996704;28;20185;-87
2023/03/02 14:38:12;;;;;;;0.60;0.60;;;;;;;;;;4982127;28;20182;-87
2023/03/02 14:40:39;;;;;;;0.50;0.50;;;;;;;;;;4990234;28;20269;-89
2023/03/02 14:43:05;;;;;;;0.60;0.60;;;;;;;;;;4977597;28;20293;-86
2023/03/02 14:45:31;;;;;;;0.60;0.60;;;;;;;;;;4978795;28;20740;-87
2023/03/02 14:47:57;;;;;;;0.50;0.50;;;;;;;;;;5007737;28;20173;-91
2023/03/02 14:50:23;;;;;;;0.60;0.60;;;;;;;;;;5014475;28;20185;-87
2023/03/02 14:52:51;;;;;;;0.50;0.50;;;;;;;;;;4987593;28;20644;-89
2023/03/02 14:55:22;;;;;;;0.60;0.60;;;;;;;;;;4991244;28;20636;-87
2023/03/02 14:57:50;;;;;;;0.60;0.60;;;;;;;;;;4977359;28;20186;-87
2023/03/02 15:00:16;;;;;;;0.60;0.60;;;;;;;;;;4981563;28;20178;-88
2023/03/02 15:02:42;;;;;;;0.50;0.50;;;;;;;;;;5000201;28;20201;-89
2023/03/02 15:05:09;;;;;;;0.60;0.60;;;;;;;;;;5000710;28;20169;-94
2023/03/02 15:07:37;;;;;;;0.60;0.60;;;;;;;;;;4999649;28;20289;-86
2023/03/02 15:10:04;;;;;;;0.53;0.53;;;;;;;;;;4998094;28;20637;-87
2023/03/02 15:12:30;;;;;;;0.60;0.60;;;;;;;;;;4978136;28;20222;-93
2023/03/02 15:14:57;;;;;;;0.50;0.50;;;;;;;;;;4978797;28;20269;-91
2023/03/02 15:17:22;;;;;;;0.40;0.40;;;;;;;;;;4978508;28;20269;-88
2023/03/02 15:19:48;;;;;;;0.60;0.60;;;;;;;;;;4978412;28;20326;-85
2023/03/02 15:22:15;;;;;;;0.70;0.70;;;;;;;;;;4978956;28;20353;-86
2023/03/02 15:24:41;;;;;;;0.57;0.57;;;;;;;;;;4996520;28;20213;-85
2023/03/02 15:27:07;;;;;;;0.70;0.70;;;;;;;;;;4979197;28;20188;-85
2023/03/02 15:29:33;;;;;;;0.60;0.60;;;;;;;;;;4978546;28;20591;-88
2023/03/02 15:31:59;;;;;;;0.60;0.60;;;;;;;;;;4981081;28;20209;-87
2023/03/02 15:34:25;;;;;;;0.60;0.60;;;;;;;;;;5000022;28;20166;-91
2023/03/02 15:36:50;;;;;;;0.70;0.70;;;;;;;;;;5007940;28;20249;-87
2023/03/02 15:39:16;;;;;;;0.70;0.70;;;;;;;;;;5011365;28;20181;-86
2023/03/02 15:41:43;;;;;;;0.50;0.50;;;;;;;;;;4999627;28;20189;-86
2023/03/02 15:44:16;;;;;;;0.60;0.60;;;;;;;;;;4997448;28;20204;-84
2023/03/02 15:46:42;;;;;;;0.50;0.50;;;;;;;;;;4996357;28;20558;-88
2023/03/02 15:49:08;;;;;;;0.63;0.63;;;;;;;;;;4995782;28;20181;-87
2023/03/02 15:51:34;;;;;;;0.50;0.50;;;;;;;;;;4995628;28;20272;-88
2023/03/02 15:54:00;;;;;;;0.70;0.70;;;;;;;;;;4996516;28;20636;-88
2023/03/02 15:56:26;;;;;;;0.60;0.60;;;;;;;;;;4997436;28;20174;-87
2023/03/02 15:58:52;;;;;;;0.60;0.60;;;;;;;;;;4998008;28;20181;-86
2023/03/02 16:01:18;;;;;;;0.60;0.60;;;;;;;;;;4996787;28;20181;-86
2023/03/02 16:03:47;;;;;;;0.50;0.50;;;;;;;;;;4996023;28;20235;-86
2023/03/02 16:06:14;;;;;;;0.60;0.60;;;;;;;;;;4996428;28;20570;-86
2023/03/02 16:08:40;;;;;;;0.50;0.50;;;;;;;;;;4996156;28;20193;-87
2023/03/02 16:11:07;;;;;;;0.70;0.70;;;;;;;;;;5000256;28;20227;-86
2023/03/02 16:13:33;;;;;;;0.70;0.70;;;;;;;;;;4997174;28;20224;-85
2023/03/02 16:16:01;;;;;;;0.67;0.67;;;;;;;;;;4996512;28;20639;-89
2023/03/02 16:18:27;;;;;;;0.70;0.70;;;;;;;;;;4997780;28;20200;-87